createdAt,value
2023-02-28T00:00:25.033Z,2.03
2023-02-28T00:02:53.675Z,1.97
2023-02-28T00:05:24.737Z,2.43
2023-02-28T00:07:52.792Z,2.23
2023-02-28T00:10:21.874Z,2.20
2023-02-28T00:12:50.397Z,2.70
2023-02-28T00:15:20.327Z,2.40
2023-02-28T00:17:48.344Z,2.03
2023-02-28T00:20:16.676Z,2.60
2023-02-28T00:22:46.829Z,2.53
2023-02-28T00:25:17.940Z,2.77
2023-02-28T00:27:46.114Z,2.23
2023-02-28T00:30:16.283Z,2.37
2023-02-28T00:32:46.068Z,2.30
2023-02-28T00:35:14.564Z,2.20
2023-02-28T00:37:43.086Z,2.40
2023-02-28T00:40:13.467Z,2.50
2023-02-28T00:42:41.602Z,2.30
2023-02-28T00:45:10.291Z,2.23
2023-02-28T00:47:39.697Z,2.53
2023-02-28T00:50:11.364Z,2.40
2023-02-28T00:52:39.229Z,2.10
2023-02-28T00:55:07.454Z,2.20
2023-02-28T00:57:35.286Z,2.50
2023-02-28T01:00:04.575Z,2.00
2023-02-28T01:02:32.594Z,2.40
2023-02-28T01:05:00.912Z,2.17
2023-02-28T01:07:32.844Z,1.93
2023-02-28T01:10:00.654Z,2.60
2023-02-28T01:12:30.832Z,2.23
2023-02-28T01:14:59.462Z,2.47
2023-02-28T01:17:27.559Z,2.30
2023-02-28T01:19:56.902Z,2.27
2023-02-28T01:22:26.521Z,2.53
2023-02-28T01:24:55.947Z,2.53
2023-02-28T01:27:23.657Z,2.60
2023-02-28T01:29:53.151Z,2.70
2023-02-28T01:32:20.919Z,2.77
2023-02-28T01:34:48.742Z,2.40
2023-02-28T01:37:16.556Z,2.57
2023-02-28T01:39:45.564Z,2.70
2023-02-28T01:42:15.054Z,2.53
2023-02-28T01:45:20.401Z,2.83
2023-02-28T01:47:52.688Z,2.80
2023-02-28T01:50:23.530Z,2.80
2023-02-28T01:52:56.763Z,2.77
2023-02-28T01:55:29.634Z,2.83
2023-02-28T01:58:04.246Z,2.63
2023-02-28T02:00:33.517Z,2.80
2023-02-28T02:03:06.824Z,2.47
2023-02-28T02:05:35.486Z,2.83
2023-02-28T02:08:06.680Z,2.90
2023-02-28T02:10:38.105Z,2.50
2023-02-28T02:13:21.486Z,2.93
2023-02-28T02:15:59.038Z,2.83
2023-02-28T02:18:32.725Z,3.40
2023-02-28T02:21:36.358Z,3.40
2023-02-28T02:24:36.223Z,3.33
2023-02-28T02:27:19.618Z,3.07
2023-02-28T02:30:23.755Z,3.23
2023-02-28T02:33:08.543Z,3.50
2023-02-28T02:35:42.980Z,3.40
2023-02-28T02:38:15.374Z,3.43
2023-02-28T02:40:47.265Z,3.23
2023-02-28T02:43:22.085Z,3.37
2023-02-28T02:45:53.957Z,3.33
2023-02-28T02:48:29.347Z,3.33
2023-02-28T02:51:03.459Z,3.57
2023-02-28T02:53:36.739Z,3.97
2023-02-28T02:56:07.739Z,3.95
2023-02-28T02:58:42.837Z,3.80
2023-02-28T03:01:16.388Z,3.33
2023-02-28T03:03:45.414Z,4.50
2023-02-28T03:06:17.110Z,3.63
2023-02-28T03:08:44.988Z,4.00
2023-02-28T03:11:17.772Z,3.80
2023-02-28T03:14:22.489Z,3.50
2023-02-28T03:17:01.783Z,3.80
2023-02-28T03:19:46.191Z,3.63
2023-02-28T03:22:33.283Z,4.10
2023-02-28T03:25:08.831Z,3.70
2023-02-28T03:27:42.464Z,3.60
2023-02-28T03:30:18.380Z,3.50
2023-02-28T03:32:57.328Z,3.97
2023-02-28T03:35:27.929Z,4.13
2023-02-28T03:38:03.250Z,3.70
2023-02-28T03:40:37.124Z,4.20
2023-02-28T03:43:14.747Z,4.23
2023-02-28T03:45:45.790Z,3.80
2023-02-28T03:48:19.821Z,4.27
2023-02-28T03:50:51.950Z,4.30
2023-02-28T03:53:27.201Z,4.00
2023-02-28T03:56:03.504Z,4.50
2023-02-28T03:58:39.689Z,4.20
2023-02-28T04:01:12.737Z,4.43
2023-02-28T04:03:41.392Z,4.20
2023-02-28T04:06:15.031Z,4.13
2023-02-28T04:08:44.959Z,4.43
2023-02-28T04:11:21.216Z,4.37
2023-02-28T04:13:49.297Z,4.50
2023-02-28T04:16:33.534Z,4.60
2023-02-28T04:19:04.395Z,3.97
2023-02-28T04:21:34.274Z,4.43
2023-02-28T04:24:04.844Z,4.67
2023-02-28T04:26:32.845Z,4.63
2023-02-28T04:29:01.254Z,4.57
2023-02-28T04:31:29.472Z,5.00
2023-02-28T04:33:57.692Z,3.80
2023-02-28T04:36:25.855Z,4.40
2023-02-28T04:38:53.703Z,4.83
2023-02-28T04:41:23.807Z,4.30
2023-02-28T04:43:52.885Z,4.90
2023-02-28T04:46:21.905Z,4.63
2023-02-28T04:48:49.824Z,4.90
2023-02-28T04:51:20.875Z,4.03
2023-02-28T04:53:50.241Z,5.10
2023-02-28T04:56:20.104Z,4.37
2023-02-28T04:58:49.458Z,4.97
2023-02-28T05:01:24.391Z,4.60
2023-02-28T05:03:53.663Z,4.50
2023-02-28T05:06:22.558Z,4.40
2023-02-28T05:08:50.310Z,4.80
2023-02-28T05:11:20.719Z,5.43
2023-02-28T05:13:50.549Z,5.10
2023-02-28T05:16:19.419Z,5.00
2023-02-28T05:18:47.760Z,4.90
2023-02-28T05:21:27.274Z,5.00
2023-02-28T05:23:56.014Z,4.27
2023-02-28T05:26:24.473Z,6.43
2023-02-28T05:28:55.651Z,4.77
2023-02-28T05:31:23.566Z,5.20
2023-02-28T05:33:52.441Z,5.00
2023-02-28T05:36:20.744Z,5.57
2023-02-28T05:38:49.756Z,5.50
2023-02-28T05:41:20.267Z,5.30
2023-02-28T05:43:48.581Z,4.60
2023-02-28T05:46:18.677Z,5.20
2023-02-28T05:48:49.232Z,5.00
2023-02-28T05:51:17.520Z,4.97
2023-02-28T05:53:45.945Z,5.20
2023-02-28T05:56:13.880Z,4.97
2023-02-28T05:58:42.260Z,5.40
2023-02-28T06:01:28.863Z,4.83
2023-02-28T06:03:57.513Z,4.83
2023-02-28T06:06:25.332Z,5.77
2023-02-28T06:08:53.179Z,5.87
2023-02-28T06:11:22.275Z,5.43
2023-02-28T06:13:50.701Z,5.70
2023-02-28T06:16:18.537Z,5.43
2023-02-28T06:18:47.695Z,5.77
2023-02-28T06:21:15.721Z,5.80
2023-02-28T06:23:43.757Z,6.10
2023-02-28T06:26:11.689Z,5.70
2023-02-28T06:28:39.475Z,6.00
2023-02-28T06:31:12.307Z,5.73
2023-02-28T06:33:41.503Z,5.40
2023-02-28T06:36:12.810Z,6.07
2023-02-28T06:38:41.505Z,6.70
2023-02-28T06:41:09.391Z,5.40
2023-02-28T06:43:40.300Z,5.73
2023-02-28T06:46:10.707Z,6.40
2023-02-28T06:48:38.554Z,6.93
2023-02-28T06:51:07.807Z,5.97
2023-02-28T06:53:37.464Z,6.10
2023-02-28T06:56:09.744Z,6.17
2023-02-28T06:58:38.440Z,6.00
2023-02-28T07:01:06.637Z,6.03
2023-02-28T07:03:36.898Z,6.77
2023-02-28T07:06:05.090Z,6.53
2023-02-28T07:08:33.833Z,6.30
2023-02-28T07:11:03.068Z,6.57
2023-02-28T07:13:31.179Z,5.97
2023-02-28T07:16:00.967Z,6.17
2023-02-28T07:18:28.923Z,6.27
2023-02-28T07:20:57.018Z,6.50
2023-02-28T07:23:25.272Z,6.30
2023-02-28T07:25:53.398Z,6.30
2023-02-28T07:28:22.694Z,6.57
2023-02-28T07:30:51.083Z,6.10
2023-02-28T07:33:20.127Z,7.03
2023-02-28T07:35:48.102Z,6.50
2023-02-28T07:38:15.951Z,6.57
2023-02-28T07:40:43.802Z,6.63
2023-02-28T07:43:11.673Z,6.73
2023-02-28T07:45:40.886Z,6.60
2023-02-28T07:48:11.057Z,6.87
2023-02-28T07:50:39.062Z,6.37
2023-02-28T07:53:06.836Z,6.57
2023-02-28T07:55:34.654Z,5.97
2023-02-28T07:58:02.510Z,7.10
2023-02-28T08:00:32.906Z,6.80
2023-02-28T08:03:02.069Z,7.50
2023-02-28T08:05:31.044Z,7.50
2023-02-28T08:07:59.369Z,7.93
2023-02-28T08:10:28.730Z,7.37
2023-02-28T08:12:57.920Z,7.00
2023-02-28T08:15:26.378Z,7.40
2023-02-28T08:17:57.160Z,7.87
2023-02-28T08:20:27.830Z,8.30
2023-02-28T08:22:55.855Z,6.87
2023-02-28T08:25:23.715Z,7.47
2023-02-28T08:27:53.017Z,8.30
2023-02-28T08:30:21.236Z,7.93
2023-02-28T08:32:49.086Z,7.83
2023-02-28T08:35:17.191Z,7.97
2023-02-28T08:37:46.446Z,8.03
2023-02-28T08:40:19.016Z,8.47
2023-02-28T08:42:47.050Z,8.07
2023-02-28T08:45:16.236Z,7.67
2023-02-28T08:47:44.065Z,7.10
2023-02-28T08:50:15.775Z,8.10
2023-02-28T08:52:45.825Z,8.10
2023-02-28T08:55:13.719Z,7.83
2023-02-28T08:57:41.521Z,7.90
2023-02-28T09:00:11.140Z,7.90
2023-02-28T09:02:38.941Z,7.97
2023-02-28T09:05:07.625Z,8.20
2023-02-28T09:07:35.446Z,8.43
2023-02-28T09:10:05.043Z,8.23
2023-02-28T09:12:36.503Z,8.07
2023-02-28T09:15:04.974Z,7.57
2023-02-28T09:17:32.818Z,8.27
2023-02-28T09:20:00.647Z,7.40
2023-02-28T09:22:28.483Z,7.83
2023-02-28T09:24:56.394Z,7.63
2023-02-28T09:27:25.592Z,8.00
2023-02-28T09:29:53.407Z,7.90
2023-02-28T09:32:21.389Z,7.53
2023-02-28T09:34:49.651Z,7.70
2023-02-28T09:37:17.472Z,8.37
2023-02-28T09:39:45.384Z,7.87
2023-02-28T09:42:23.299Z,7.83
2023-02-28T09:44:52.996Z,7.77
2023-02-28T09:47:31.174Z,8.77
2023-02-28T09:50:04.253Z,8.50
2023-02-28T09:52:33.877Z,8.80
2023-02-28T09:55:13.457Z,8.33
2023-02-28T09:57:43.290Z,8.03
2023-02-28T10:00:20.169Z,7.40
2023-02-28T10:03:02.369Z,8.00
2023-02-28T10:05:35.151Z,7.50
2023-02-28T10:08:09.637Z,8.43
2023-02-28T10:10:41.962Z,8.50
2023-02-28T10:13:17.941Z,8.60
2023-02-28T10:15:50.728Z,8.23
2023-02-28T10:18:25.547Z,8.00
2023-02-28T10:20:54.035Z,8.43
2023-02-28T10:23:25.546Z,8.47
2023-02-28T10:25:57.681Z,8.70
2023-02-28T10:28:27.440Z,8.00
2023-02-28T10:30:57.683Z,8.40
2023-02-28T10:33:30.274Z,7.90
2023-02-28T10:35:58.168Z,8.13
2023-02-28T10:38:29.839Z,7.90
2023-02-28T10:41:06.811Z,8.20
2023-02-28T10:43:34.754Z,9.13
2023-02-28T10:46:11.571Z,8.40
2023-02-28T10:48:41.539Z,8.00
2023-02-28T10:51:13.183Z,7.83
2023-02-28T10:54:00.468Z,8.20
2023-02-28T10:56:29.630Z,8.10
2023-02-28T10:58:59.874Z,7.57
2023-02-28T11:01:45.573Z,7.90
2023-02-28T11:04:22.859Z,8.97
2023-02-28T11:06:59.716Z,9.10
2023-02-28T11:09:32.025Z,7.90
2023-02-28T11:12:00.380Z,8.67
2023-02-28T11:14:30.434Z,9.03
2023-02-28T11:17:05.643Z,9.33
2023-02-28T11:19:41.142Z,8.27
2023-02-28T11:22:10.358Z,8.07
2023-02-28T11:24:43.488Z,8.50
2023-02-28T11:27:27.663Z,8.30
2023-02-28T11:29:55.623Z,8.47
2023-02-28T11:32:26.001Z,8.80
2023-02-28T11:35:04.868Z,8.70
2023-02-28T11:37:34.531Z,9.50
2023-02-28T11:40:05.265Z,8.30
2023-02-28T11:42:54.901Z,9.63
2023-02-28T11:45:45.355Z,8.53
2023-02-28T11:48:22.748Z,8.43
2023-02-28T11:51:05.226Z,8.40
2023-02-28T11:53:50.719Z,8.60
2023-02-28T11:56:25.664Z,8.90
2023-02-28T11:59:04.126Z,10.07
2023-02-28T12:02:02.700Z,9.10
2023-02-28T12:04:44.643Z,9.13
2023-02-28T12:07:21.215Z,8.70
2023-02-28T12:09:59.241Z,10.33
2023-02-28T12:12:44.588Z,9.23
2023-02-28T12:15:46.137Z,8.93
2023-02-28T12:18:29.512Z,9.57
2023-02-28T12:21:06.734Z,9.97
2023-02-28T12:23:56.927Z,10.43
2023-02-28T12:26:35.096Z,8.70
2023-02-28T12:29:11.308Z,9.00
2023-02-28T12:31:43.855Z,9.30
2023-02-28T12:34:18.031Z,9.27
2023-02-28T12:36:49.888Z,9.33
2023-02-28T12:39:24.134Z,9.10
2023-02-28T12:41:56.136Z,8.80
2023-02-28T12:44:33.754Z,8.67
2023-02-28T12:47:05.740Z,9.17
2023-02-28T12:49:39.627Z,9.27
2023-02-28T12:52:12.079Z,8.97
2023-02-28T12:54:47.194Z,8.90
2023-02-28T12:57:19.569Z,9.17
2023-02-28T12:59:53.114Z,8.57
2023-02-28T13:03:05.969Z,8.77
2023-02-28T13:06:06.101Z,9.23
2023-02-28T13:09:00.275Z,8.40
2023-02-28T13:11:31.737Z,8.97
2023-02-28T13:14:01.701Z,8.30
2023-02-28T13:16:32.438Z,8.93
2023-02-28T13:19:12.591Z,8.47
2023-02-28T13:21:46.023Z,8.87
2023-02-28T13:24:44.083Z,9.40
2023-02-28T13:27:40.489Z,8.93
2023-02-28T13:30:47.819Z,8.23
2023-02-28T13:33:27.508Z,8.57
2023-02-28T13:36:12.174Z,8.50
2023-02-28T13:38:42.667Z,8.60
2023-02-28T13:41:52.165Z,8.97
2023-02-28T13:44:24.333Z,8.77
2023-02-28T13:47:29.939Z,8.80
2023-02-28T13:50:29.116Z,8.50
2023-02-28T13:53:20.263Z,9.07
2023-02-28T13:55:54.112Z,8.90
2023-02-28T13:58:40.216Z,8.80
2023-02-28T14:01:18.866Z,8.30
2023-02-28T14:04:11.632Z,8.17
2023-02-28T14:06:41.457Z,8.63
2023-02-28T14:09:27.113Z,7.83
2023-02-28T14:11:55.720Z,8.63
2023-02-28T14:14:58.543Z,8.83
2023-02-28T14:17:28.010Z,8.63
2023-02-28T14:19:56.544Z,9.00
2023-02-28T14:22:52.613Z,9.27
2023-02-28T14:25:33.298Z,8.70
2023-02-28T14:28:13.553Z,8.70
2023-02-28T14:30:59.576Z,8.40
2023-02-28T14:33:38.672Z,8.93
2023-02-28T14:36:16.871Z,8.57
2023-02-28T14:38:49.257Z,9.07
2023-02-28T14:41:22.864Z,8.03
2023-02-28T14:43:53.479Z,8.90
2023-02-28T14:46:24.777Z,8.03
2023-02-28T14:48:53.393Z,8.20
2023-02-28T14:51:23.382Z,8.67
2023-02-28T14:53:56.713Z,8.47
2023-02-28T14:56:28.029Z,9.23
2023-02-28T14:58:57.909Z,7.57
2023-02-28T15:01:28.695Z,8.67
2023-02-28T15:04:03.669Z,8.50
2023-02-28T15:06:32.371Z,8.27
2023-02-28T15:09:11.686Z,7.87
2023-02-28T15:11:41.380Z,8.40
2023-02-28T15:14:14.793Z,7.93
2023-02-28T15:16:45.908Z,8.50
2023-02-28T15:19:20.170Z,7.87
2023-02-28T15:21:51.754Z,8.10
2023-02-28T15:24:25.249Z,7.60
2023-02-28T15:26:56.766Z,7.87
2023-02-28T15:29:26.983Z,7.93
2023-02-28T15:32:02.786Z,8.13
2023-02-28T15:34:43.063Z,8.43
2023-02-28T15:37:31.966Z,8.17
2023-02-28T15:40:09.925Z,8.83
2023-02-28T15:42:37.752Z,8.57
2023-02-28T15:45:06.328Z,8.57
2023-02-28T15:47:35.670Z,8.40
2023-02-28T15:50:06.020Z,8.63
2023-02-28T15:52:39.450Z,8.00
2023-02-28T15:55:13.631Z,8.13
2023-02-28T15:57:42.847Z,8.40
2023-02-28T16:00:15.777Z,7.77
2023-02-28T16:02:45.272Z,8.07
2023-02-28T16:05:28.806Z,8.23
2023-02-28T16:07:57.872Z,7.77
2023-02-28T16:10:27.926Z,7.87
2023-02-28T16:12:57.381Z,8.73
2023-02-28T16:15:28.015Z,8.40
2023-02-28T16:17:58.449Z,7.73
2023-02-28T16:20:29.268Z,7.80
2023-02-28T16:22:57.257Z,8.17
2023-02-28T16:25:30.515Z,7.27
2023-02-28T16:28:01.328Z,8.17
2023-02-28T16:30:32.491Z,8.90
2023-02-28T16:33:01.974Z,8.10
2023-02-28T16:35:29.794Z,8.23
2023-02-28T16:37:57.672Z,8.37
2023-02-28T16:40:29.458Z,8.63
2023-02-28T16:43:00.524Z,9.33
2023-02-28T16:45:30.039Z,9.20
2023-02-28T16:47:58.963Z,8.40
2023-02-28T16:50:30.988Z,8.20
2023-02-28T16:52:58.856Z,7.67
2023-02-28T16:55:28.156Z,8.03
2023-02-28T16:57:58.083Z,8.63
2023-02-28T17:00:27.094Z,8.67
2023-02-28T17:02:55.349Z,8.23
2023-02-28T17:05:24.280Z,8.37
2023-02-28T17:07:54.480Z,8.40
2023-02-28T17:10:24.160Z,8.83
2023-02-28T17:12:52.838Z,8.80
2023-02-28T17:15:22.263Z,8.93
2023-02-28T17:17:50.750Z,8.90
2023-02-28T17:20:23.360Z,8.97
2023-02-28T17:22:51.347Z,8.20
2023-02-28T17:25:21.109Z,8.10
2023-02-28T17:27:49.434Z,9.17
2023-02-28T17:30:19.582Z,9.13
2023-02-28T17:32:47.674Z,8.80
2023-02-28T17:35:16.218Z,9.30
2023-02-28T17:37:44.552Z,9.50
2023-02-28T17:40:16.484Z,9.50
2023-02-28T17:42:45.991Z,9.60
2023-02-28T17:45:14.247Z,10.03
2023-02-28T17:47:51.078Z,11.07
2023-02-28T17:50:24.168Z,9.93
2023-02-28T17:52:52.266Z,9.37
2023-02-28T17:55:23.006Z,10.03
2023-02-28T17:57:52.225Z,9.63
2023-02-28T18:00:21.103Z,10.17
2023-02-28T18:02:48.952Z,9.73
2023-02-28T18:05:16.860Z,10.20
2023-02-28T18:07:46.133Z,9.37
2023-02-28T18:10:20.365Z,9.03
2023-02-28T18:12:48.627Z,9.00
2023-02-28T18:15:21.014Z,8.83
2023-02-28T18:17:49.253Z,12.17
2023-02-28T18:20:18.045Z,12.83
2023-02-28T18:22:46.024Z,10.13
2023-02-28T18:25:17.166Z,10.80
2023-02-28T18:27:54.247Z,9.90
2023-02-28T18:30:24.014Z,10.10
2023-02-28T18:32:52.688Z,10.07
2023-02-28T18:35:34.782Z,11.37
2023-02-28T18:38:05.143Z,10.33
2023-02-28T18:40:33.376Z,10.57
2023-02-28T18:43:01.584Z,11.10
2023-02-28T18:45:31.524Z,10.80
2023-02-28T18:47:59.640Z,10.73
2023-02-28T18:50:27.548Z,11.50
2023-02-28T18:52:55.346Z,10.67
2023-02-28T18:55:24.008Z,10.97
2023-02-28T18:57:51.854Z,12.13
2023-02-28T19:00:22.604Z,11.13
2023-02-28T19:02:52.782Z,11.13
2023-02-28T19:05:21.789Z,10.37
2023-02-28T19:07:49.746Z,10.53
2023-02-28T19:10:18.176Z,11.03
2023-02-28T19:12:46.243Z,11.03
2023-02-28T19:15:14.443Z,11.53
2023-02-28T19:17:43.115Z,11.40
2023-02-28T19:20:13.819Z,10.93
2023-02-28T19:22:41.788Z,11.27
2023-02-28T19:25:10.716Z,10.70
2023-02-28T19:27:38.834Z,12.03
2023-02-28T19:30:08.376Z,11.07
2023-02-28T19:32:36.441Z,11.70
2023-02-28T19:35:06.754Z,11.33
2023-02-28T19:37:38.526Z,12.97
2023-02-28T19:40:07.614Z,13.00
2023-02-28T19:42:36.626Z,12.73
2023-02-28T19:45:06.907Z,11.93
2023-02-28T19:47:34.795Z,10.37
2023-02-28T19:50:02.582Z,12.93
2023-02-28T19:52:30.413Z,12.00
2023-02-28T19:54:59.792Z,13.00
2023-02-28T19:57:27.648Z,13.40
2023-02-28T19:59:55.401Z,12.50
2023-02-28T20:02:23.968Z,12.20
2023-02-28T20:04:52.173Z,12.77
2023-02-28T20:07:22.057Z,12.93
2023-02-28T20:09:50.078Z,13.20
2023-02-28T20:12:24.787Z,12.30
2023-02-28T20:14:55.959Z,13.47
2023-02-28T20:17:24.857Z,13.13
2023-02-28T20:19:52.635Z,13.27
2023-02-28T20:22:21.328Z,13.13
2023-02-28T20:24:49.941Z,13.07
2023-02-28T20:27:19.093Z,12.50
2023-02-28T20:29:46.986Z,13.10
2023-02-28T20:32:14.874Z,14.53
2023-02-28T20:34:42.931Z,16.73
2023-02-28T20:37:10.799Z,15.83
2023-02-28T20:39:38.945Z,14.20
2023-02-28T20:42:07.305Z,16.60
2023-02-28T20:44:36.705Z,17.93
2023-02-28T20:47:04.798Z,16.33
2023-02-28T20:49:32.592Z,16.43
2023-02-28T20:52:00.599Z,16.77
2023-02-28T20:54:30.324Z,17.93
2023-02-28T20:56:58.422Z,16.77
2023-02-28T20:59:26.279Z,15.87
2023-02-28T21:01:56.206Z,15.93
2023-02-28T21:04:24.198Z,14.50
2023-02-28T21:06:53.486Z,14.17
2023-02-28T21:09:21.596Z,14.93
2023-02-28T21:11:51.087Z,13.50
2023-02-28T21:14:19.850Z,13.40
2023-02-28T21:16:48.554Z,13.60
2023-02-28T21:19:18.666Z,13.07
2023-02-28T21:21:48.410Z,12.37
2023-02-28T21:24:18.756Z,12.07
2023-02-28T21:26:48.194Z,11.80
2023-02-28T21:29:17.808Z,12.60
2023-02-28T21:31:45.834Z,12.10
2023-02-28T21:34:15.101Z,11.77
2023-02-28T21:36:47.351Z,12.33
2023-02-28T21:39:18.358Z,11.77
2023-02-28T21:41:46.316Z,12.70
2023-02-28T21:44:18.773Z,12.80
2023-02-28T21:46:48.002Z,12.00
2023-02-28T21:49:18.518Z,12.17
2023-02-28T21:51:48.482Z,12.40
2023-02-28T21:54:17.077Z,12.67
2023-02-28T21:56:45.341Z,11.20
2023-02-28T21:59:13.922Z,12.77
2023-02-28T22:01:44.068Z,11.50
2023-02-28T22:04:21.259Z,11.97
2023-02-28T22:06:52.379Z,11.77
2023-02-28T22:09:20.736Z,12.60
2023-02-28T22:11:48.749Z,11.83
2023-02-28T22:14:19.649Z,12.37
2023-02-28T22:16:52.437Z,13.40
2023-02-28T22:19:24.279Z,13.53
2023-02-28T22:21:54.711Z,14.80
2023-02-28T22:24:24.504Z,13.87
2023-02-28T22:26:54.713Z,12.90
2023-02-28T22:29:24.156Z,12.60
2023-02-28T22:31:53.481Z,11.70
2023-02-28T22:34:22.514Z,13.30
2023-02-28T22:36:50.720Z,13.03
2023-02-28T22:39:21.548Z,13.53
2023-02-28T22:41:49.623Z,16.10
2023-02-28T22:44:18.409Z,14.67
2023-02-28T22:46:47.445Z,15.73
2023-02-28T22:49:15.350Z,15.00
2023-02-28T22:51:43.173Z,13.87
2023-02-28T22:54:11.693Z,13.73
2023-02-28T22:56:42.530Z,12.80
2023-02-28T22:59:17.260Z,12.80
2023-02-28T23:01:46.514Z,12.40
2023-02-28T23:04:14.367Z,12.50
2023-02-28T23:06:44.808Z,11.70
2023-02-28T23:09:15.207Z,11.93
2023-02-28T23:11:46.126Z,12.23
2023-02-28T23:14:15.517Z,11.97
2023-02-28T23:16:44.998Z,11.63
2023-02-28T23:19:15.216Z,12.20
2023-02-28T23:21:43.440Z,12.57
2023-02-28T23:24:15.133Z,12.20
2023-02-28T23:26:46.751Z,11.67
2023-02-28T23:29:16.284Z,12.07
2023-02-28T23:31:44.833Z,12.23
2023-02-28T23:34:14.253Z,11.40
2023-02-28T23:36:45.912Z,12.63
2023-02-28T23:39:17.120Z,11.80
2023-02-28T23:41:47.281Z,11.87
2023-02-28T23:44:17.253Z,12.07
2023-02-28T23:46:47.607Z,12.17
2023-02-28T23:49:16.767Z,12.13
2023-02-28T23:51:45.371Z,12.17
2023-02-28T23:54:13.443Z,12.40
2023-02-28T23:56:42.608Z,12.97
2023-02-28T23:59:12.627Z,12.47
